MyMeetScores TOP 100 TOP TEAMS UPCOMING MEETS COMPLETED MEETS LATEST MEETS ADD SCORES SUPPORT SHOP
Pretty in PinkShop@
MyMeetScores
 
Leah Hunnius, Gym Kinetics Gymnastics - MyMeetScores.com
Leah Hunnius
Gym Kinetics Gymnastics
Personal Bests
Level Vault Bars Beam Floor AA
3 9.550 9.250 9.450 9.375 37.625
4 8.775 9.225 9.300 8.675 35.675
5 9.200 9.150 9.550 8.650 35.450
7 9.450 9.350 9.300 9.375 37.300
Meet Scores
Date Meet Team Session Level Division Vault Bars Beam Floor AA
2022-04-01 Level 6-7-8 State 2022 Gym Kinetics Gymnastics 08 7 Sr C 9.400 8T 9.325 4 9.200 10T 9.375 17 37.300 5
2022-03-10 Lucky Invite Gym Kinetics Gymnastics A02 7 Older 9.125 10 9.075 6T 9.300 4 9.200 18T 36.700 8T
2022-02-11 2022 Woga Classic Gym Kinetics Gymnastics 4/8 7 Senior 9.000 9T 9.000 3 9.000 7 9.175 15T 36.175 5
2022-01-21 Circle of Stars Gym Kinetics Gymnastics A10 7 Sr B 9.000 2 9.325 4 18.325 6T
2022-01-14 2022 Bravo Classic Gym Kinetics Gymnastics 11B 7 Sr 9.450 1 8.750 9T 9.300 8 8.600 15 36.100 8
2021-12-17 2021 Women's Hawaiian Pineapple Invitational Gym Kinetics Gymnastics 3A 7 Kauai 8.675 8 9.350 2 9.225 4 8.850 15 36.100 6
2021-04-09 Illinois Level 7 8 State Championships Gym Kinetics Gymnastics 4 7 Sr C 8.850 25 6.000 30 0.000 31T 14.850 31
2021-03-05 NGC Flip'r S.O.U.L. Invitational Gym Kinetics Gymnastics 08 7 SR 9.150 7T 8.700 8T 7.475 13 7.850 13 33.175 12
2021-02-26 Kinetic Classic 2021 Gym Kinetics Gymnastics 13 7 Older 9.175 16 8.600 17 9.250 8 8.600 23 35.625 20
2021-02-12 Harley Meet Women - Midwest Twisters Gym Kinetics Gymnastics O10 7 Sr A 8.750 8 7.575 9 8.000 9 0.000 9 24.325 9
2021-01-21 King Arthur Invitational Gym Kinetics Gymnastics 1 7 SR 8.350 11 7.350 11 8.675 7 8.150 11 32.525 10
2021-01-14 2021 Bravo Classic Gym Kinetics Gymnastics 16 7 Sr 8.800 19 7.525 18 7.775 21 8.475 20 32.575 20
2020-12-18 Aspire Classic Gym Kinetics Gymnastics 3 7 Older 9.000 10 0.000 14 8.850 10 0.000 14 17.850 14
2020-02-21 Kinetic Classic Gym Kinetics Gymnastics 03 5 Older 8.625 57T 8.775 33T 9.550 4 8.500 54T 35.450 41
2020-01-31 Chow's Challenge Gym Kinetics Gymnastics B2 5 SR A 8.775 8 8.250 7T 8.600 4 8.125 7 33.750 7
2020-01-17 2020 Bravo Classic Gym Kinetics Gymnastics 4A 5 Sr 9.200 15 8.750 16T 8.575 17 8.650 19 35.175 20T
2020-01-10 Leenda's Island Adventure Gym Kinetics Gymnastics PG1 5 12 Year Ol 8.700 7T 8.525 4 8.800 2 7.950 15 33.975 5
2019-12-20 Aspire Classic - 2019 Gym Kinetics Gymnastics 3A 5 Older 9.100 10T 8.850 10 8.975 13 8.275 17 35.200 13T
2019-12-07 Home for the Holidays 2019 Gym Kinetics Gymnastics 5 5 Older 8.725 9 9.150 5T 8.800 3 0.000 9 26.675 9
2019-03-01 NGCD Academy's 2019 Flip'r Invitational Gym Kinetics Gymnastics 10 4 Jr B 8.775 7 9.200 5 8.950 11T 7.600 12 34.525 11
2019-02-23 Kinetic Classic 2019 Gym Kinetics Gymnastics 1 4 Older 8.625 17T 9.225 7T 9.300 4T 8.525 32T 35.675 11
2019-02-08 Midwest Twisters Harley Meet Womens Gym Kinetics Gymnastics T10 4 11 yrs. 8.200 11 8.650 3T 7.775 11 8.400 7 33.025 10
2019-01-18 2019 Bravo Classic Gym Kinetics Gymnastics 3B 4 Sr 8.350 18 8.850 8T 9.275 4 8.500 14 34.975 12
2019-01-11 St Jude Benefit Meet Gym Kinetics Gymnastics 6A 4 Sr A 8.450 15 7.650 15 8.950 11T 8.625 13 33.675 13
2018-12-14 2018 Aspire Classic Gym Kinetics Gymnastics 6A 4 Older 8.700 22 8.650 21 9.200 14 8.675 20 35.225 20T
2018-05-03 Illinois USA Gymnastics Level 3 State Championships Gym Kinetics Gymnastics 5 3 Sr C 9.550 11T 9.250 17 9.450 6 9.375 12T 37.625 13
2018-02-23 Kinetic Classic Gym Kinetics Gymnastics 4 3 Older 9.050 39T 9.100 47T 9.025 48T 8.850 72T 36.025 54
2018-02-09 Arizona Sunrays Classic Rock Invitational Gym Kinetics Gymnastics R02 3 SrB 9.100 5 9.100 4 9.100 5 9.200 6 36.500 5
2018-02-03 Midwest Games Gym Kinetics Gymnastics 4 3 SR B 8.800 14 8.900 9T 8.700 10 8.950 13 35.350 12
2018-01-19 2018 Bravo Classic Gym Kinetics Gymnastics 5B 3 Sr 8.450 19 9.250 8 6.450 19 8.475 19 32.625 19
2017-12-15 2017 Aspire Classic Gym Kinetics Gymnastics 9A 3 Older 9.050 8 9.150 5T 8.825 6 9.125 11T 36.150 8